Time;durP1;ratioP1;P1;durP2;ratioP2;P2;SDS_P1;SDS_P2;PMS_P1;PMS_P2;Temp;Humidity;BMP_temperature;BMP_pressure;BME280_temperature;BME280_humidity;BME280_pressure;Samples;Min_cycle;Max_cycle;Signal;HPM_P1;HPM_P2
2023/04/17 00:00:15;;;;;;;36.03;24.23;;;;;;;9.20;73.02;101247.91;10189086;29;20071;-76
2023/04/17 00:05:21;;;;;;;38.20;26.30;;;;;;;9.17;72.96;101241.88;10163052;29;20100;-77
2023/04/17 00:10:26;;;;;;;39.60;26.48;;;;;;;9.14;73.14;101247.44;10173665;29;20092;-76
2023/04/17 00:15:29;;;;;;;36.75;26.30;;;;;;;9.11;73.17;101251.16;10174859;29;20044;-75
2023/04/17 00:20:32;;;;;;;41.15;26.30;;;;;;;9.08;73.04;101245.09;10158670;29;20040;-76
2023/04/17 00:25:36;;;;;;;39.65;27.13;;;;;;;8.99;73.01;101247.38;10163796;29;20503;-76
2023/04/17 00:30:39;;;;;;;43.95;26.77;;;;;;;8.96;73.17;101247.56;10173585;29;20048;-77
2023/04/17 00:35:42;;;;;;;43.63;27.48;;;;;;;8.92;73.29;101246.06;10172250;29;20048;-77
2023/04/17 00:40:46;;;;;;;42.63;28.35;;;;;;;8.93;73.30;101246.91;10178223;29;20072;-77
2023/04/17 00:45:50;;;;;;;42.22;28.00;;;;;;;8.93;73.28;101250.44;10179285;29;20496;-76
2023/04/17 00:50:54;;;;;;;41.78;28.20;;;;;;;8.96;73.08;101254.75;10173462;29;20051;-77
2023/04/17 00:55:58;;;;;;;44.80;26.50;;;;;;;8.91;72.92;101248.81;10175028;29;20075;-76
2023/04/17 01:01:01;;;;;;;42.80;27.08;;;;;;;8.95;73.05;101253.03;10175242;29;20040;-77
2023/04/17 01:06:04;;;;;;;40.85;26.73;;;;;;;8.93;72.55;101246.91;10171420;29;20064;-76
2023/04/17 01:11:10;;;;;;;36.53;25.92;;;;;;;8.86;72.39;101243.75;10183763;29;20416;-76
2023/04/17 01:16:12;;;;;;;40.40;25.65;;;;;;;8.76;72.45;101237.22;10164804;29;20044;-77
2023/04/17 01:21:16;;;;;;;39.83;25.60;;;;;;;8.77;72.40;101234.41;10161921;29;20040;-75
2023/04/17 01:26:22;;;;;;;41.13;27.08;;;;;;;8.73;72.50;101243.63;10180543;29;20484;-76
2023/04/17 01:31:26;;;;;;;41.60;27.10;;;;;;;8.74;72.66;101244.47;10160057;29;20048;-77
2023/04/17 01:36:30;;;;;;;42.15;26.30;;;;;;;8.77;72.67;101241.59;10160235;29;20041;-75
2023/04/17 01:41:35;;;;;;;38.95;26.17;;;;;;;8.74;72.57;101249.81;10164310;29;20052;-77
2023/04/17 01:46:38;;;;;;;43.38;27.50;;;;;;;8.79;72.73;101248.59;10162509;29;20136;-76
2023/04/17 01:51:41;;;;;;;39.08;26.15;;;;;;;8.83;72.42;101257.31;10162512;29;20103;-77
2023/04/17 01:56:46;;;;;;;43.20;26.58;;;;;;;8.77;72.22;101258.53;10164539;29;20048;-77
2023/04/17 02:01:50;;;;;;;40.95;26.15;;;;;;;8.79;72.08;101261.13;10155510;29;20056;-76
2023/04/17 02:06:52;;;;;;;38.17;26.65;;;;;;;8.79;72.08;101269.16;10169636;29;20084;-76
2023/04/17 02:11:57;;;;;;;44.13;26.52;;;;;;;8.79;71.95;101266.50;10182279;29;20055;-78
2023/04/17 02:17:00;;;;;;;37.10;26.15;;;;;;;8.84;72.03;101269.75;10171358;29;20044;-79
2023/04/17 02:22:07;;;;;;;36.35;25.25;;;;;;;8.82;71.73;101269.84;10167358;29;20060;-76
2023/04/17 02:27:11;;;;;;;39.92;25.52;;;;;;;8.79;71.81;101272.72;10165996;29;20040;-76
2023/04/17 02:32:18;;;;;;;35.30;25.52;;;;;;;8.81;71.77;101278.84;10170918;29;20048;-75
2023/04/17 02:37:21;;;;;;;37.65;26.02;;;;;;;8.78;71.72;101273.69;10169272;29;20055;-76
2023/04/17 02:42:25;;;;;;;35.05;24.60;;;;;;;8.77;71.59;101271.06;10174717;29;20040;-76
2023/04/17 02:47:28;;;;;;;36.33;24.38;;;;;;;8.78;71.58;101275.50;10185030;29;20081;-76
2023/04/17 02:52:32;;;;;;;35.40;23.98;;;;;;;8.75;71.44;101271.19;10202326;29;20080;-75
2023/04/17 02:57:37;;;;;;;36.60;23.92;;;;;;;8.69;71.61;101271.53;10225714;29;20058;-73
2023/04/17 03:02:40;;;;;;;34.47;23.95;;;;;;;8.65;71.73;101272.66;10226097;29;20119;-74
2023/04/17 03:07:43;;;;;;;39.53;25.45;;;;;;;8.66;71.59;101268.16;10225185;29;20044;-74
2023/04/17 03:12:50;;;;;;;37.72;24.83;;;;;;;8.65;71.74;101270.00;10241959;29;20040;-74
2023/04/17 03:17:53;;;;;;;37.38;23.77;;;;;;;8.57;71.15;101266.91;10216198;29;20028;-77
2023/04/17 03:22:56;;;;;;;37.03;23.45;;;;;;;8.47;71.40;101271.06;10232239;29;20067;-74
2023/04/17 03:28:00;;;;;;;37.70;23.58;;;;;;;8.47;71.47;101279.94;10224226;29;20071;-74
2023/04/17 03:33:06;;;;;;;38.53;23.17;;;;;;;8.42;71.51;101279.34;10220850;29;20059;-74
2023/04/17 03:38:10;;;;;;;37.03;23.98;;;;;;;8.36;71.70;101279.69;10222583;29;20051;-74
2023/04/17 03:43:14;;;;;;;33.95;23.63;;;;;;;8.32;71.68;101280.81;10185651;29;20047;-78
2023/04/17 03:48:17;;;;;;;35.58;23.73;;;;;;;8.27;71.85;101288.25;10209493;29;20074;-75
2023/04/17 03:53:21;;;;;;;37.42;23.17;;;;;;;8.21;72.07;101286.78;10211429;29;20415;-77
2023/04/17 03:58:26;;;;;;;37.53;24.17;;;;;;;8.21;72.11;101293.97;10183350;29;20043;-79
2023/04/17 04:03:30;;;;;;;34.10;24.17;;;;;;;8.20;71.98;101287.75;10181385;29;20036;-79
2023/04/17 04:08:34;;;;;;;37.05;23.70;;;;;;;8.12;71.88;101293.53;10189604;29;20135;-76
2023/04/17 04:13:38;;;;;;;38.15;23.52;;;;;;;8.10;71.78;101305.25;10183555;29;20056;-78
2023/04/17 04:18:42;;;;;;;38.47;24.50;;;;;;;8.12;71.86;101306.91;10184495;29;20040;-80
2023/04/17 04:23:48;;;;;;;32.90;22.45;;;;;;;8.10;72.01;101314.16;10182093;29;20506;-79
2023/04/17 04:28:56;;;;;;;37.58;22.55;;;;;;;8.07;72.16;101317.00;10198911;29;20075;-79
2023/04/17 04:34:07;;;;;;;39.33;21.95;;;;;;;8.04;72.20;101313.66;10180646;29;20044;-79
2023/04/17 04:39:10;;;;;;;31.65;21.08;;;;;;;8.02;72.18;101315.53;10192717;29;20087;-79
2023/04/17 04:44:15;;;;;;;32.65;21.85;;;;;;;7.96;72.28;101316.75;10184977;29;20055;-79
2023/04/17 04:49:19;;;;;;;35.92;21.95;;;;;;;7.89;72.29;101321.53;10182521;29;20052;-78
2023/04/17 04:54:22;;;;;;;35.25;21.85;;;;;;;7.95;72.06;101328.38;10185126;29;20051;-78
2023/04/17 04:59:31;;;;;;;38.22;22.95;;;;;;;7.98;72.05;101335.38;10182787;29;20507;-80
2023/04/17 05:04:54;;;;;;;33.80;21.50;;;;;;;7.92;71.82;101331.22;10182043;29;20064;-79
2023/04/17 05:09:59;;;;;;;38.50;23.52;;;;;;;7.92;71.71;101333.88;10182264;29;20058;-79
2023/04/17 05:15:08;;;;;;;33.20;20.83;;;;;;;7.99;71.63;101343.31;10181443;29;20131;-78
2023/04/17 05:20:12;;;;;;;34.42;21.13;;;;;;;7.86;71.33;101344.94;10186937;29;20040;-78
2023/04/17 05:25:22;;;;;;;30.98;20.98;;;;;;;7.99;71.32;101366.53;10201043;29;20063;-76
2023/04/17 05:30:27;;;;;;;32.78;22.27;;;;;;;8.02;70.80;101358.34;10217861;29;20121;-76
2023/04/17 05:35:42;;;;;;;32.70;20.35;;;;;;;8.18;70.45;101372.63;10200696;29;20051;-76
2023/04/17 05:40:45;;;;;;;34.72;21.52;;;;;;;8.16;70.02;101375.34;10208242;29;20065;-76
2023/04/17 05:45:49;;;;;;;35.40;20.50;;;;;;;8.32;69.65;101383.41;10213329;29;20052;-78
2023/04/17 05:50:52;;;;;;;30.70;20.85;;;;;;;8.40;69.63;101380.31;10184171;29;20047;-79
2023/04/17 05:55:55;;;;;;;32.97;20.40;;;;;;;8.37;69.34;101378.66;10200281;29;20063;-79
2023/04/17 06:01:01;;;;;;;34.00;20.33;;;;;;;8.53;69.23;101388.53;10184649;29;20041;-76
2023/04/17 06:06:04;;;;;;;42.60;20.65;;;;;;;8.62;68.88;101385.34;10181121;29;20115;-79
2023/04/17 06:11:07;;;;;;;30.08;20.10;;;;;;;8.70;67.97;101391.13;10187319;29;20055;-75
2023/04/17 06:16:12;;;;;;;31.25;20.15;;;;;;;8.82;67.43;101393.09;10197038;29;20067;-80
2023/04/17 06:21:15;;;;;;;33.60;20.48;;;;;;;9.02;67.04;101401.78;10189346;29;20040;-80
2023/04/17 06:26:18;;;;;;;26.35;19.65;;;;;;;9.10;66.36;101410.25;10211506;29;20048;-78
2023/04/17 06:31:23;;;;;;;31.58;19.95;;;;;;;9.25;65.79;101406.66;10192201;29;20044;-80
2023/04/17 06:36:27;;;;;;;29.77;19.23;;;;;;;9.50;64.97;101414.09;10191376;29;20083;-80
2023/04/17 06:41:32;;;;;;;29.23;18.80;;;;;;;9.73;64.44;101404.66;10188983;29;20047;-77
2023/04/17 06:46:37;;;;;;;29.50;18.90;;;;;;;9.97;63.73;101412.19;10191047;29;20048;-79
2023/04/17 06:51:40;;;;;;;27.75;17.65;;;;;;;10.15;62.58;101413.72;10189343;29;20092;-77
2023/04/17 06:56:43;;;;;;;24.25;17.75;;;;;;;10.19;61.67;101418.91;10191388;29;20083;-78
2023/04/17 07:01:47;;;;;;;17.48;10.65;;;;;;;10.45;61.44;101425.28;10190319;29;20761;-80
2023/04/17 07:06:50;;;;;;;23.38;16.17;;;;;;;10.77;60.45;101426.75;10191230;29;20103;-80
2023/04/17 07:11:53;;;;;;;24.23;16.70;;;;;;;11.04;58.98;101433.97;10182976;29;20051;-74
2023/04/17 07:16:57;;;;;;;26.10;16.92;;;;;;;11.31;58.67;101438.50;10186038;29;20146;-79
2023/04/17 07:22:00;;;;;;;24.73;15.18;;;;;;;11.42;56.96;101444.88;10183025;29;20436;-78
2023/04/17 07:27:05;;;;;;;19.45;14.38;;;;;;;11.61;56.67;101455.25;10182291;29;20060;-78
2023/04/17 07:32:12;;;;;;;22.05;14.73;;;;;;;11.85;55.01;101451.84;10191448;29;20052;-76
2023/04/17 07:37:15;;;;;;;20.75;14.60;;;;;;;12.10;54.35;101454.53;10219413;29;20143;-79
2023/04/17 07:42:17;;;;;;;21.77;14.32;;;;;;;12.27;53.50;101452.47;10199007;29;20047;-74
2023/04/17 07:47:22;;;;;;;20.25;13.10;;;;;;;12.58;53.17;101452.00;10202428;29;20065;-78
2023/04/17 07:52:26;;;;;;;19.42;13.43;;;;;;;12.76;52.15;101441.72;10185180;29;20068;-78
2023/04/17 07:57:28;;;;;;;18.60;13.60;;;;;;;12.88;51.11;101444.47;10147644;29;20099;-78
2023/04/17 08:02:33;;;;;;;23.38;14.57;;;;;;;12.86;50.86;101454.50;10149291;29;20051;-78
2023/04/17 08:07:36;;;;;;;19.92;13.80;;;;;;;13.03;50.87;101454.16;10149122;29;20145;-78
2023/04/17 08:12:39;;;;;;;22.48;13.85;;;;;;;13.04;50.40;101453.16;10163810;29;21578;-79
2023/04/17 08:17:43;;;;;;;19.27;13.35;;;;;;;13.13;50.22;101465.09;10173582;29;20673;-79
2023/04/17 08:22:46;;;;;;;19.40;12.85;;;;;;;13.48;50.21;101468.72;10146675;29;20060;-77
2023/04/17 08:27:49;;;;;;;19.67;12.45;;;;;;;13.98;49.06;101467.63;10149118;29;20056;-79
2023/04/17 08:32:54;;;;;;;17.98;12.25;;;;;;;14.43;46.65;101468.56;10147279;29;20133;-79
2023/04/17 08:37:58;;;;;;;19.95;12.45;;;;;;;14.71;46.20;101478.00;10149383;29;20063;-79
2023/04/17 08:43:01;;;;;;;15.20;10.70;;;;;;;15.04;44.67;101478.91;10144768;29;21226;-77
2023/04/17 08:48:06;;;;;;;19.30;11.73;;;;;;;14.93;43.54;101481.66;10167970;29;20059;-79
2023/04/17 08:53:09;;;;;;;14.57;11.00;;;;;;;15.06;43.23;101482.38;10161067;29;20507;-79
2023/04/17 08:58:13;;;;;;;13.75;10.50;;;;;;;14.92;43.00;101486.22;10148058;29;20052;-80
2023/04/17 09:03:18;;;;;;;17.08;10.77;;;;;;;15.33;43.22;101478.31;10146991;29;20054;-77
2023/04/17 09:08:22;;;;;;;16.55;10.68;;;;;;;15.59;41.96;101487.00;10148425;29;20052;-79
2023/04/17 09:13:28;;;;;;;16.25;10.32;;;;;;;15.44;40.21;101487.31;10146157;29;20052;-80
2023/04/17 09:18:34;;;;;;;15.85;10.30;;;;;;;15.52;40.65;101489.34;10141453;29;20080;-79
2023/04/17 09:23:49;;;;;;;15.73;10.65;;;;;;;15.32;40.17;101484.75;10143236;29;20209;-79
2023/04/17 09:29:03;;;;;;;15.18;10.65;;;;;;;16.09;41.44;101484.47;10143869;29;20083;-80
2023/04/17 09:34:10;;;;;;;13.10;9.52;;;;;;;16.77;40.04;101477.53;10145283;29;20080;-80
2023/04/17 09:39:19;;;;;;;15.52;9.90;;;;;;;17.01;38.41;101482.59;10143972;29;20048;-79
2023/04/17 09:44:25;;;;;;;19.88;11.63;;;;;;;17.19;39.07;101485.50;10167388;29;20612;-77
2023/04/17 09:49:33;;;;;;;10.82;9.25;;;;;;;17.36;37.68;101481.25;10171295;29;20052;-78
2023/04/17 09:54:37;;;;;;;18.67;10.80;;;;;;;17.65;37.99;101474.94;10144580;29;20414;-79
2023/04/17 09:59:43;;;;;;;14.95;10.88;;;;;;;18.18;37.18;101481.72;10146247;29;20052;-79
2023/04/17 10:04:48;;;;;;;13.95;10.00;;;;;;;18.23;37.82;101483.00;10177438;29;20279;-77
2023/04/17 10:09:51;;;;;;;14.85;10.32;;;;;;;19.08;36.06;101480.19;10149530;29;21311;-78
2023/04/17 10:14:54;;;;;;;14.15;9.57;;;;;;;18.90;35.38;101475.59;10154443;29;21338;-78
2023/04/17 10:20:36;;;;;;;11.05;8.80;;;;;;;19.37;35.07;101469.09;10165039;29;20052;-79
2023/04/17 10:25:40;;;;;;;15.45;10.40;;;;;;;18.60;34.72;101468.56;10162717;29;20036;-76
2023/04/17 10:30:50;;;;;;;12.27;9.27;;;;;;;18.45;34.47;101461.88;10175397;29;21276;-77
2023/04/17 10:35:55;;;;;;;14.80;9.23;;;;;;;19.03;34.11;101464.31;10157191;29;20048;-80
2023/04/17 10:41:01;;;;;;;15.80;9.43;;;;;;;19.63;32.77;101452.81;10143769;29;20063;-77
2023/04/17 10:46:05;;;;;;;12.43;8.68;;;;;;;19.61;33.02;101457.56;10144802;29;20093;-78
2023/04/17 10:51:42;;;;;;;16.00;9.32;;;;;;;19.82;32.10;101443.59;10142527;29;20146;-79
2023/04/17 10:56:47;;;;;;;13.00;9.23;;;;;;;19.49;31.85;101454.19;10144630;29;20052;-78
2023/04/17 11:01:59;;;;;;;14.10;8.43;;;;;;;20.31;31.10;101441.19;10149018;29;20548;-77
2023/04/17 11:07:03;;;;;;;10.35;9.25;;;;;;;19.96;30.13;101444.88;10148097;29;20052;-80
2023/04/17 11:12:07;;;;;;;14.98;10.50;;;;;;;21.26;31.54;101432.81;10150177;29;20060;-80
2023/04/17 11:17:10;;;;;;;15.80;9.52;;;;;;;22.02;29.96;101442.50;10149399;29;20192;-77
2023/04/17 11:22:18;;;;;;;14.32;9.05;;;;;;;22.00;28.97;101433.66;10148347;29;20052;-79
2023/04/17 11:27:22;;;;;;;15.10;10.23;;;;;;;22.63;29.74;101431.94;10185437;29;20048;-75
2023/04/17 11:32:25;;;;;;;17.65;10.15;;;;;;;22.74;28.68;101432.38;10153600;29;20052;-76
2023/04/17 11:37:28;;;;;;;13.82;9.48;;;;;;;20.93;31.26;101425.38;10145062;29;20119;-79
2023/04/17 11:42:32;;;;;;;16.17;10.77;;;;;;;21.81;31.04;101423.94;10149671;29;20431;-78
2023/04/17 11:47:35;;;;;;;15.80;10.25;;;;;;;22.96;29.48;101413.41;10150979;29;20052;-76
2023/04/17 11:52:38;;;;;;;14.32;9.60;;;;;;;23.49;27.90;101419.03;10148611;29;20060;-79
2023/04/17 11:57:43;;;;;;;13.75;10.25;;;;;;;23.32;28.69;101415.59;10151303;29;20056;-78
2023/04/17 12:02:45;;;;;;;14.50;10.27;;;;;;;23.12;28.26;101415.19;10150081;29;20430;-75
2023/04/17 12:08:00;;;;;;;14.18;11.10;;;;;;;23.80;28.98;101417.03;10165896;29;20072;-78
2023/04/17 12:13:04;;;;;;;16.27;10.20;;;;;;;23.87;27.91;101423.50;10156519;29;20040;-79
2023/04/17 12:18:08;;;;;;;16.50;10.23;;;;;;;23.82;28.21;101412.22;10149009;29;20063;-79
2023/04/17 12:23:10;;;;;;;15.68;10.90;;;;;;;23.54;28.65;101420.19;10155032;29;20096;-77
2023/04/17 12:28:15;;;;;;;12.85;9.68;;;;;;;23.58;28.33;101409.69;10178619;29;20052;-77
2023/04/17 12:33:18;;;;;;;13.02;9.40;;;;;;;21.90;29.30;101411.94;10161129;29;20098;-76
2023/04/17 12:38:22;;;;;;;12.60;9.85;;;;;;;20.45;31.58;101416.00;10151691;29;20052;-79
2023/04/17 12:43:26;;;;;;;13.95;10.60;;;;;;;18.96;33.55;101423.22;10148027;29;20677;-79
2023/04/17 12:48:29;;;;;;;14.07;10.43;;;;;;;18.83;34.23;101421.91;10147253;29;20570;-79
2023/04/17 12:53:35;;;;;;;13.18;9.23;;;;;;;20.02;31.54;101417.84;10150866;29;20056;-77
2023/04/17 12:58:39;;;;;;;12.80;9.85;;;;;;;20.13;31.42;101414.81;10135195;29;20507;-78
2023/04/17 13:03:42;;;;;;;13.85;9.68;;;;;;;19.71;32.63;101409.25;10143430;29;21126;-80
2023/04/17 13:08:45;;;;;;;12.15;9.30;;;;;;;20.35;31.83;101407.13;10133727;29;20052;-79
2023/04/17 13:13:49;;;;;;;13.95;9.60;;;;;;;21.68;29.97;101403.41;10143398;29;20464;-79
2023/04/17 13:18:52;;;;;;;15.25;9.75;;;;;;;22.39;29.45;101387.16;10138269;29;20673;-76
2023/04/17 13:23:55;;;;;;;13.38;8.98;;;;;;;23.17;28.05;101386.19;10141797;29;20064;-79
2023/04/17 13:28:59;;;;;;;14.02;8.75;;;;;;;22.69;27.99;101384.66;10144315;29;20044;-79
2023/04/17 13:34:02;;;;;;;13.40;8.65;;;;;;;21.27;29.61;101369.78;10144694;29;20052;-80
2023/04/17 13:39:05;;;;;;;15.07;10.48;;;;;;;19.94;31.93;101392.34;10141307;29;20144;-79
2023/04/17 13:44:10;;;;;;;15.60;9.43;;;;;;;18.94;33.26;101372.66;10142324;29;20075;-78
2023/04/17 13:49:13;;;;;;;15.05;11.85;;;;;;;17.71;34.56;101381.97;10157661;29;20062;-78
2023/04/17 13:54:17;;;;;;;14.98;11.80;;;;;;;17.06;36.54;101370.88;10137797;29;20056;-78
2023/04/17 13:59:21;;;;;;;15.48;11.15;;;;;;;17.27;37.19;101364.47;10145190;29;20056;-80
2023/04/17 14:04:24;;;;;;;17.55;12.13;;;;;;;16.76;36.93;101358.31;10143455;29;20509;-80
2023/04/17 14:09:27;;;;;;;15.85;11.32;;;;;;;18.41;35.96;101359.84;10151131;29;20055;-78
2023/04/17 14:14:32;;;;;;;16.00;10.25;;;;;;;20.20;32.68;101343.25;10144709;29;20095;-78
2023/04/17 14:19:35;;;;;;;15.40;9.75;;;;;;;21.48;30.86;101330.16;10145405;29;20068;-79
2023/04/17 14:24:37;;;;;;;13.02;9.38;;;;;;;21.93;30.72;101320.47;10147991;29;20048;-78
2023/04/17 14:29:42;;;;;;;12.52;9.13;;;;;;;22.35;28.89;101320.09;10144462;29;20080;-78
2023/04/17 14:34:45;;;;;;;30.48;7.88;;;;;;;21.64;29.31;101313.72;10145847;29;20044;-79
2023/04/17 14:39:48;;;;;;;13.75;8.60;;;;;;;22.32;28.93;101317.72;10164954;29;20048;-78
2023/04/17 14:44:52;;;;;;;12.93;8.88;;;;;;;20.64;31.60;101304.84;10152269;29;20056;-78
2023/04/17 14:49:54;;;;;;;11.65;9.20;;;;;;;18.24;34.76;101323.41;10164043;29;20056;-75
2023/04/17 14:54:57;;;;;;;13.23;8.85;;;;;;;17.40;36.46;101321.56;10154183;29;20066;-78
2023/04/17 15:00:01;;;;;;;15.40;9.55;;;;;;;17.35;37.44;101322.00;10143068;29;20539;-77
2023/04/17 15:05:05;;;;;;;12.55;9.43;;;;;;;17.24;37.43;101323.03;10150752;29;20192;-78
2023/04/17 15:10:09;;;;;;;16.05;9.30;;;;;;;16.96;36.95;101319.31;10156200;29;20099;-76
2023/04/17 15:15:13;;;;;;;15.45;9.13;;;;;;;16.65;37.57;101320.44;10190658;29;20078;-78
2023/04/17 15:20:16;;;;;;;12.68;9.07;;;;;;;18.61;35.49;101297.97;10141229;29;20071;-78
2023/04/17 15:25:19;;;;;;;11.98;9.30;;;;;;;20.06;33.33;101288.28;10180480;29;20061;-75
2023/04/17 15:30:23;;;;;;;13.82;8.73;;;;;;;20.81;31.87;101284.72;10156249;29;20369;-78
2023/04/17 15:35:26;;;;;;;12.13;8.95;;;;;;;20.18;31.77;101282.53;10168958;29;20072;-78
2023/04/17 15:40:29;;;;;;;12.15;9.30;;;;;;;18.41;34.63;101292.69;10149533;29;20174;-77
2023/04/17 15:45:33;;;;;;;11.68;9.00;;;;;;;17.48;36.37;101286.38;10153563;29;20052;-79
2023/04/17 15:50:37;;;;;;;10.95;8.57;;;;;;;17.68;36.35;101292.59;10160810;29;20155;-77
2023/04/17 15:55:39;;;;;;;11.35;9.25;;;;;;;18.23;35.58;101281.75;10159016;29;21360;-78
2023/04/17 16:00:44;;;;;;;14.52;9.15;;;;;;;19.26;34.03;101273.22;10148668;29;20911;-76
2023/04/17 16:05:47;;;;;;;12.15;9.55;;;;;;;19.73;33.42;101279.13;10145891;29;20055;-78
2023/04/17 16:10:49;;;;;;;11.30;9.30;;;;;;;19.96;33.04;101273.94;10145961;29;20051;-78
2023/04/17 16:15:54;;;;;;;14.18;10.57;;;;;;;19.43;33.70;101272.28;10149330;29;20044;-78
2023/04/17 16:20:57;;;;;;;10.82;8.90;;;;;;;18.52;34.48;101280.72;10146374;29;20143;-78
2023/04/17 16:25:59;;;;;;;13.40;8.73;;;;;;;18.67;34.52;101272.84;10147108;29;20048;-78
2023/04/17 16:31:03;;;;;;;11.07;9.45;;;;;;;17.77;35.62;101280.84;10143157;29;20072;-78
2023/04/17 16:36:07;;;;;;;14.80;9.68;;;;;;;16.99;36.68;101275.59;10136841;29;20127;-79
2023/04/17 16:41:09;;;;;;;15.10;10.50;;;;;;;16.58;36.93;101271.31;10136723;29;20099;-78
2023/04/17 16:46:14;;;;;;;14.02;9.82;;;;;;;16.23;37.90;101271.81;10143994;29;20086;-80
2023/04/17 16:51:30;;;;;;;12.82;9.45;;;;;;;16.47;37.62;101268.75;10157283;29;20282;-78
2023/04/17 16:56:33;;;;;;;17.70;9.00;;;;;;;16.93;37.18;101276.19;10154681;29;20063;-79
2023/04/17 17:01:37;;;;;;;13.80;8.95;;;;;;;16.80;37.03;101273.75;10153594;29;20495;-80
2023/04/17 17:06:40;;;;;;;11.80;8.15;;;;;;;16.66;36.73;101265.19;10146297;29;20062;-79
2023/04/17 17:11:43;;;;;;;15.35;7.80;;;;;;;16.30;36.79;101279.28;10146894;29;20079;-78
2023/04/17 17:16:47;;;;;;;12.00;8.18;;;;;;;15.62;38.02;101281.75;10144600;29;20142;-78
2023/04/17 17:21:50;;;;;;;14.70;8.48;;;;;;;15.12;38.69;101291.56;10138945;29;20048;-78
2023/04/17 17:26:53;;;;;;;13.20;8.40;;;;;;;15.11;39.36;101287.13;10139313;29;20151;-78
2023/04/17 17:31:57;;;;;;;11.65;7.57;;;;;;;15.24;39.37;101301.31;10138278;29;20058;-79
2023/04/17 17:37:00;;;;;;;12.45;7.72;;;;;;;15.12;38.72;101284.31;10139986;29;20048;-79
2023/04/17 17:42:07;;;;;;;11.75;7.53;;;;;;;15.03;39.16;101287.81;10147300;29;20479;-77
2023/04/17 17:47:11;;;;;;;12.35;7.43;;;;;;;14.81;39.33;101305.88;10139193;29;20658;-78
2023/04/17 17:52:14;;;;;;;15.07;7.22;;;;;;;14.42;39.09;101306.47;10138289;29;20788;-78
2023/04/17 17:57:17;;;;;;;13.70;7.95;;;;;;;14.29;38.87;101302.06;10133742;29;20052;-78
2023/04/17 18:02:21;;;;;;;17.10;8.23;;;;;;;14.10;39.29;101308.13;10137522;29;20515;-77
2023/04/17 18:07:25;;;;;;;16.27;8.50;;;;;;;13.80;39.10;101313.31;10139350;29;20052;-76
2023/04/17 18:12:27;;;;;;;15.48;7.82;;;;;;;13.48;39.03;101314.88;10141095;29;20048;-77
2023/04/17 18:17:32;;;;;;;10.40;7.60;;;;;;;13.41;39.10;101323.56;10137502;29;20498;-79
2023/04/17 18:22:36;;;;;;;12.25;7.47;;;;;;;13.21;39.35;101325.09;10136550;29;20056;-80
2023/04/17 18:27:39;;;;;;;12.48;7.78;;;;;;;13.05;39.59;101333.50;10142321;29;20139;-80
2023/04/17 18:32:44;;;;;;;12.15;7.63;;;;;;;12.82;39.78;101336.09;10137080;29;20457;-80
2023/04/17 18:37:46;;;;;;;11.85;7.90;;;;;;;12.59;39.67;101337.84;10135848;29;20055;-77
2023/04/17 18:42:49;;;;;;;12.35;7.40;;;;;;;12.48;39.65;101339.59;10177816;29;20055;-78
2023/04/17 18:47:53;;;;;;;10.60;7.07;;;;;;;12.41;39.48;101351.81;10145782;29;20048;-76
2023/04/17 18:52:56;;;;;;;14.35;7.93;;;;;;;12.21;39.38;101351.41;10141884;29;20044;-79
2023/04/17 18:57:59;;;;;;;14.38;7.93;;;;;;;12.15;39.35;101359.94;10146324;29;20060;-79
2023/04/17 19:03:04;;;;;;;14.43;8.23;;;;;;;12.05;39.26;101361.56;10169775;29;21629;-78
2023/04/17 19:08:08;;;;;;;14.02;7.28;;;;;;;11.93;39.11;101360.63;10144520;29;20070;-79
2023/04/17 19:13:11;;;;;;;11.20;6.95;;;;;;;11.77;38.44;101363.53;10142534;29;20060;-77
2023/04/17 19:18:15;;;;;;;9.32;6.10;;;;;;;11.69;38.57;101368.59;10137909;29;20415;-79
2023/04/17 19:23:18;;;;;;;9.05;6.00;;;;;;;11.56;38.30;101370.44;10145981;29;20052;-77
2023/04/17 19:28:21;;;;;;;13.50;7.10;;;;;;;11.52;37.85;101374.28;10145766;29;20044;-77
2023/04/17 19:33:25;;;;;;;14.18;6.97;;;;;;;11.42;37.71;101380.31;10151960;29;20048;-80
2023/04/17 19:38:28;;;;;;;14.90;7.75;;;;;;;11.36;38.15;101374.50;10157366;29;20404;-80
2023/04/17 19:43:31;;;;;;;11.13;7.25;;;;;;;11.27;39.13;101375.97;10147173;29;20052;-77
2023/04/17 19:48:35;;;;;;;15.60;7.55;;;;;;;11.16;39.28;101365.97;10142879;29;20060;-80
2023/04/17 19:53:40;;;;;;;10.57;6.60;;;;;;;10.95;39.84;101370.94;10148042;29;20056;-80
2023/04/17 19:58:42;;;;;;;13.63;6.93;;;;;;;10.76;41.06;101376.66;10142796;29;20064;-81
2023/04/17 20:03:47;;;;;;;11.63;6.80;;;;;;;10.77;42.16;101388.28;10146316;29;20595;-78
2023/04/17 20:08:50;;;;;;;11.02;6.43;;;;;;;10.72;42.93;101396.63;10139689;29;20562;-80
2023/04/17 20:13:53;;;;;;;11.25;6.20;;;;;;;10.70;43.53;101398.56;10155374;29;20119;-80
2023/04/17 20:18:57;;;;;;;12.65;6.45;;;;;;;10.62;44.40;101392.84;10150140;29;20096;-75
2023/04/17 20:24:00;;;;;;;10.27;6.60;;;;;;;10.52;45.49;101405.13;10142675;29;20052;-79
2023/04/17 20:29:02;;;;;;;;;;;;;;;10.39;47.33;101421.16;10161583;29;20058;-78
2023/04/17 20:34:07;;;;;;;9.90;6.63;;;;;;;10.39;48.14;101422.06;10167131;29;19973;-79
2023/04/17 20:39:09;;;;;;;11.25;7.70;;;;;;;10.24;49.58;101420.34;10158307;29;20448;-81
2023/04/17 20:44:14;;;;;;;13.93;7.85;;;;;;;10.03;51.11;101414.47;10146012;29;20107;-82
2023/04/17 20:49:18;;;;;;;12.88;8.52;;;;;;;9.85;52.59;101423.66;10153968;29;20052;-79
2023/04/17 20:54:21;;;;;;;12.77;8.48;;;;;;;9.62;54.13;101423.22;10187479;29;20047;-79
2023/04/17 20:59:25;;;;;;;10.60;7.80;;;;;;;9.56;54.56;101420.91;10185336;29;20095;-78
2023/04/17 21:04:29;;;;;;;10.63;7.72;;;;;;;9.44;54.98;101427.91;10186488;29;20054;-79
2023/04/17 21:09:32;;;;;;;9.52;7.07;;;;;;;9.47;54.96;101419.66;10200113;29;20075;-79
2023/04/17 21:14:35;;;;;;;8.77;7.20;;;;;;;9.29;55.56;101429.66;10183219;29;20439;-77
2023/04/17 21:19:40;;;;;;;10.27;7.28;;;;;;;9.38;55.38;101432.75;10180901;29;20127;-79
2023/04/17 21:24:43;;;;;;;8.95;7.32;;;;;;;9.25;55.55;101429.94;10183965;29;20052;-79
2023/04/17 21:29:46;;;;;;;11.57;6.82;;;;;;;8.87;56.25;101445.56;10199495;29;20047;-79
2023/04/17 21:34:50;;;;;;;8.82;6.88;;;;;;;8.99;56.20;101451.06;10186587;29;20052;-78
2023/04/17 21:39:53;;;;;;;9.10;7.05;;;;;;;8.85;56.50;101456.38;10185303;29;20055;-78
2023/04/17 21:44:56;;;;;;;8.90;6.68;;;;;;;8.63;56.46;101454.03;10183217;29;20079;-79
2023/04/17 21:50:00;;;;;;;6.28;5.50;;;;;;;8.49;56.00;101456.63;10181841;29;20048;-81
2023/04/17 21:55:04;;;;;;;6.18;5.47;;;;;;;8.54;55.63;101463.44;10186350;29;20524;-77
2023/04/17 22:00:10;;;;;;;9.65;6.03;;;;;;;8.45;55.47;101469.28;10212782;29;20068;-76
2023/04/17 22:05:14;;;;;;;6.20;4.97;;;;;;;8.36;55.49;101476.00;10188669;29;20091;-81
2023/04/17 22:10:17;;;;;;;9.88;5.40;;;;;;;8.28;55.70;101475.56;10184885;29;20119;-77
2023/04/17 22:15:20;;;;;;;8.70;4.97;;;;;;;8.21;55.46;101475.97;10185581;29;20091;-79
2023/04/17 22:20:24;;;;;;;9.05;5.25;;;;;;;8.28;55.46;101472.00;10184144;29;20063;-80
2023/04/17 22:25:27;;;;;;;5.55;4.90;;;;;;;8.24;55.36;101475.81;10182870;29;20106;-79
2023/04/17 22:30:30;;;;;;;7.20;5.32;;;;;;;8.13;55.59;101474.56;10181967;29;20072;-78
2023/04/17 22:35:34;;;;;;;6.38;5.13;;;;;;;8.10;55.74;101471.19;10181197;29;20068;-79
2023/04/17 22:40:37;;;;;;;7.10;4.60;;;;;;;8.03;56.13;101480.47;10181042;29;20044;-79
2023/04/17 22:45:40;;;;;;;5.53;4.70;;;;;;;7.92;56.68;101471.19;10185910;29;20427;-74
2023/04/17 22:50:45;;;;;;;4.97;4.25;;;;;;;7.94;56.50;101477.34;10202917;29;20065;-77
2023/04/17 22:55:58;;;;;;;5.07;4.55;;;;;;;7.81;56.48;101478.06;10208334;29;20060;-78
2023/04/17 23:01:01;;;;;;;7.93;4.32;;;;;;;7.81;57.06;101470.03;10208426;29;20077;-78